createdAt,value
2022-09-09T00:01:00.073Z,610.9
2022-09-09T00:02:02.567Z,611.1
2022-09-09T00:03:05.617Z,611.5
2022-09-09T00:04:08.107Z,611.6
2022-09-09T00:05:10.580Z,611.7
2022-09-09T00:06:13.048Z,611.7
2022-09-09T00:07:15.255Z,611.7
2022-09-09T00:08:17.750Z,611.7
2022-09-09T00:09:19.990Z,611.7
2022-09-09T00:10:21.916Z,611.4
2022-09-09T00:12:30.603Z,611.3
2022-09-09T00:13:33.074Z,611.9
2022-09-09T00:14:35.313Z,611.4
2022-09-09T00:15:37.813Z,611.7
2022-09-09T00:16:40.295Z,611.8
2022-09-09T00:17:42.835Z,611.5
2022-09-09T00:18:45.063Z,612.1
2022-09-09T00:19:47.542Z,611.9
2022-09-09T00:20:49.492Z,612
2022-09-09T00:21:51.162Z,611.7
2022-09-09T00:22:53.660Z,612.1
2022-09-09T00:23:56.139Z,611.9
2022-09-09T00:24:58.648Z,611.6
2022-09-09T00:26:01.135Z,611.9
2022-09-09T00:27:03.344Z,612.4
2022-09-09T00:28:05.838Z,612.5
2022-09-09T00:29:07.769Z,612.4
2022-09-09T00:30:09.753Z,612.8
2022-09-09T00:31:12.486Z,612.6
2022-09-09T00:32:14.417Z,612.6
2022-09-09T00:33:16.597Z,612.1
2022-09-09T00:34:18.794Z,612
2022-09-09T00:35:20.426Z,612.5
2022-09-09T00:36:22.626Z,612
2022-09-09T00:37:25.121Z,612.2
2022-09-09T00:38:27.333Z,612.2
2022-09-09T00:39:29.330Z,612.3
2022-09-09T00:40:31.874Z,612
2022-09-09T00:41:34.356Z,612
2022-09-09T00:42:35.987Z,611.5
2022-09-09T00:43:38.495Z,611.6
2022-09-09T00:44:40.995Z,611.8
2022-09-09T00:45:43.654Z,611.7
2022-09-09T00:46:46.141Z,611.6
2022-09-09T00:47:48.093Z,611.7
2022-09-09T00:48:50.603Z,611.8
2022-09-09T00:49:52.811Z,611.9
2022-09-09T00:50:55.292Z,612
2022-09-09T00:51:57.765Z,611.9
2022-09-09T00:53:00.243Z,612.2
2022-09-09T00:54:02.723Z,612
2022-09-09T00:55:04.636Z,611.8
2022-09-09T00:56:06.590Z,612.1
2022-09-09T00:57:09.057Z,612
2022-09-09T00:58:11.534Z,612.3
2022-09-09T00:59:14.024Z,612.2
2022-09-09T01:00:15.950Z,612.1
2022-09-09T01:01:18.759Z,611.7
2022-09-09T01:02:21.681Z,611.9
2022-09-09T01:03:24.179Z,612.4
2022-09-09T01:04:26.423Z,611.8
2022-09-09T01:05:28.622Z,611.7
2022-09-09T01:06:30.820Z,611.9
2022-09-09T01:07:33.023Z,611.6
2022-09-09T01:08:36.315Z,611.7
2022-09-09T01:09:38.584Z,611.2
2022-09-09T01:10:41.053Z,611.6
2022-09-09T01:11:43.558Z,611.3
2022-09-09T01:12:46.093Z,611.8
2022-09-09T01:13:48.309Z,611.9
2022-09-09T01:14:50.545Z,611.7
2022-09-09T01:15:53.022Z,611.4
2022-09-09T01:16:55.955Z,611.6
2022-09-09T01:17:58.455Z,611.7
2022-09-09T01:19:00.938Z,611.7
2022-09-09T01:20:03.205Z,612
2022-09-09T01:21:05.670Z,611.9
2022-09-09T01:22:07.878Z,612
2022-09-09T01:23:10.074Z,612.1
2022-09-09T01:24:12.547Z,612.2
2022-09-09T01:25:15.025Z,612.3
2022-09-09T01:26:16.953Z,612.1
2022-09-09T01:27:19.441Z,611.8
2022-09-09T01:28:21.649Z,612
2022-09-09T01:29:24.122Z,612.2
2022-09-09T01:30:26.433Z,612
2022-09-09T01:31:28.654Z,612.4
2022-09-09T01:32:31.208Z,612.5
2022-09-09T01:33:33.691Z,612.3
2022-09-09T01:34:36.178Z,612.2
2022-09-09T01:35:38.706Z,612.1
2022-09-09T01:36:41.174Z,612.4
2022-09-09T01:37:43.650Z,612.2
2022-09-09T01:38:45.844Z,612.6
2022-09-09T01:39:48.674Z,612.3
2022-09-09T01:40:51.147Z,612.2
2022-09-09T01:41:53.621Z,612.1
2022-09-09T01:42:56.116Z,611.9
2022-09-09T01:43:58.287Z,612
2022-09-09T01:45:00.490Z,611.9
2022-09-09T01:46:03.547Z,612.2
2022-09-09T01:47:06.099Z,612.2
2022-09-09T01:48:08.343Z,612.1
2022-09-09T01:49:10.554Z,612.1
2022-09-09T01:50:12.739Z,612.1
2022-09-09T01:51:15.268Z,612.4
2022-09-09T01:52:17.455Z,612.1
2022-09-09T01:53:19.940Z,612
2022-09-09T01:54:21.843Z,612
2022-09-09T01:55:24.329Z,611.8
2022-09-09T01:56:26.815Z,611.8
2022-09-09T01:57:30.030Z,612
2022-09-09T01:58:32.309Z,612.1
2022-09-09T01:59:34.533Z,611.9
2022-09-09T02:00:37.024Z,612.1
2022-09-09T02:01:39.795Z,611.8
2022-09-09T02:02:42.661Z,612
2022-09-09T02:03:44.878Z,612
2022-09-09T02:04:46.816Z,612
2022-09-09T02:05:49.296Z,612.2
2022-09-09T02:06:51.544Z,612.4
2022-09-09T02:07:53.739Z,612.6
2022-09-09T02:08:55.928Z,612.9
2022-09-09T02:09:58.397Z,613.2
2022-09-09T02:11:00.620Z,613.3
2022-09-09T02:12:02.818Z,613.5
2022-09-09T02:13:05.018Z,613.7
2022-09-09T02:14:07.503Z,613.7
2022-09-09T02:15:09.996Z,613.8
2022-09-09T02:16:12.743Z,613.7
2022-09-09T02:17:15.003Z,614.1
2022-09-09T02:18:17.476Z,613.8
2022-09-09T02:19:19.684Z,613.6
2022-09-09T02:20:22.161Z,613.2
2022-09-09T02:21:24.364Z,613.2
2022-09-09T02:22:26.883Z,613.1
2022-09-09T02:23:29.037Z,612.9
2022-09-09T02:24:31.248Z,613.1
2022-09-09T02:25:33.447Z,613.4
2022-09-09T02:26:35.972Z,613.3
2022-09-09T02:27:38.468Z,613.3
2022-09-09T02:28:40.944Z,613.4
2022-09-09T02:29:43.433Z,613
2022-09-09T02:30:45.812Z,613.2
2022-09-09T02:31:48.321Z,613.3
2022-09-09T02:32:50.554Z,613.3
2022-09-09T02:33:52.753Z,613.3
2022-09-09T02:34:55.231Z,613.6
2022-09-09T02:35:56.861Z,613.4
2022-09-09T02:36:59.055Z,613.6
2022-09-09T02:38:01.591Z,613.8
2022-09-09T02:39:03.775Z,613.7
2022-09-09T02:40:06.711Z,614.2
2022-09-09T02:41:08.940Z,614
2022-09-09T02:42:11.156Z,614
2022-09-09T02:43:13.620Z,613.8
2022-09-09T02:44:15.818Z,613.7
2022-09-09T02:45:18.355Z,613.7
2022-09-09T02:46:21.253Z,613.8
2022-09-09T02:47:23.474Z,613.6
2022-09-09T02:48:25.987Z,613.9
2022-09-09T02:49:28.173Z,613.9
2022-09-09T02:50:30.389Z,613.8
2022-09-09T02:51:32.907Z,614
2022-09-09T02:52:35.110Z,613.9
2022-09-09T02:53:37.627Z,613.7
2022-09-09T02:54:40.100Z,613.8
2022-09-09T02:55:42.351Z,613.6
2022-09-09T02:56:44.552Z,614
2022-09-09T02:57:46.475Z,613.6
2022-09-09T02:58:48.935Z,613.6
2022-09-09T02:59:51.408Z,613.9
2022-09-09T03:00:54.311Z,614
2022-09-09T03:01:57.051Z,614
2022-09-09T03:02:59.558Z,614.1
2022-09-09T03:04:01.777Z,614.4
2022-09-09T03:05:04.022Z,614.3
2022-09-09T03:06:06.515Z,614.4
2022-09-09T03:07:08.695Z,614.4
2022-09-09T03:08:11.180Z,614.6
2022-09-09T03:09:13.694Z,614.4
2022-09-09T03:10:16.156Z,614.6
2022-09-09T03:11:18.651Z,614.6
2022-09-09T03:12:21.141Z,614.3
2022-09-09T03:13:23.621Z,614.3
2022-09-09T03:14:26.112Z,614.1
2022-09-09T03:15:28.602Z,614.3
2022-09-09T03:16:31.443Z,614.4
2022-09-09T03:17:33.676Z,614.6
2022-09-09T03:18:36.944Z,614.7
2022-09-09T03:19:39.222Z,614.5
2022-09-09T03:20:41.702Z,615
2022-09-09T03:21:43.895Z,614.7
2022-09-09T03:22:46.383Z,615
2022-09-09T03:23:48.558Z,614.4
2022-09-09T03:24:51.085Z,614.4
2022-09-09T03:25:53.279Z,614.3
2022-09-09T03:26:55.762Z,614.3
2022-09-09T03:27:57.692Z,614.2
2022-09-09T03:29:00.174Z,614.6
2022-09-09T03:30:02.382Z,614.6
2022-09-09T03:31:04.572Z,614.6
2022-09-09T03:32:07.493Z,614.5
2022-09-09T03:33:10.082Z,614.9
2022-09-09T03:34:12.549Z,614.8
2022-09-09T03:35:14.763Z,615.1
2022-09-09T03:36:16.698Z,615.2
2022-09-09T03:37:18.929Z,615.1
2022-09-09T03:38:21.396Z,615.1
2022-09-09T03:39:23.880Z,614.9
2022-09-09T03:40:26.120Z,614.7
2022-09-09T03:41:28.314Z,614.5
2022-09-09T03:42:30.788Z,614.6
2022-09-09T03:43:32.991Z,614.6
2022-09-09T03:44:35.196Z,614.7
2022-09-09T03:45:37.918Z,614.6
2022-09-09T03:46:40.158Z,614.5
2022-09-09T03:47:42.645Z,614.7
2022-09-09T03:48:45.123Z,614.4
2022-09-09T03:49:47.328Z,614.1
2022-09-09T03:50:49.833Z,614
2022-09-09T03:51:52.298Z,614.5
2022-09-09T03:52:54.795Z,614.4
2022-09-09T03:53:57.265Z,614.2
2022-09-09T03:54:59.476Z,614.2
2022-09-09T03:56:02.197Z,614.4
2022-09-09T03:57:04.656Z,614.3
2022-09-09T03:58:06.833Z,614.9
2022-09-09T03:59:09.051Z,614.9
2022-09-09T04:00:10.989Z,614.9
2022-09-09T04:01:13.579Z,614.7
2022-09-09T04:02:16.287Z,615
2022-09-09T04:03:18.810Z,615
2022-09-09T04:04:21.276Z,615.1
2022-09-09T04:05:23.764Z,615
2022-09-09T04:06:26.272Z,615.1
2022-09-09T04:07:28.744Z,615.4
2022-09-09T04:08:31.321Z,615.1
2022-09-09T04:09:33.809Z,615.5
2022-09-09T04:10:36.032Z,615.1
2022-09-09T04:11:38.551Z,615.4
2022-09-09T04:12:40.752Z,615.4
2022-09-09T04:13:43.225Z,615.5
2022-09-09T04:14:45.693Z,615.6
2022-09-09T04:15:48.166Z,615.4
2022-09-09T04:16:50.398Z,615.6
2022-09-09T04:17:52.889Z,615.8
2022-09-09T04:18:55.429Z,616
2022-09-09T04:19:57.896Z,616.2
2022-09-09T04:21:00.375Z,616.1
2022-09-09T04:22:02.896Z,615.5
2022-09-09T04:23:05.111Z,615.5
2022-09-09T04:24:07.603Z,616
2022-09-09T04:25:09.802Z,615.9
2022-09-09T04:26:12.289Z,616.3
2022-09-09T04:27:14.834Z,616.6
2022-09-09T04:28:17.031Z,616.4
2022-09-09T04:29:19.503Z,616.7
2022-09-09T04:30:21.999Z,617.3
2022-09-09T04:31:25.036Z,617.2
2022-09-09T04:32:27.350Z,617.9
2022-09-09T04:33:29.814Z,617.6
2022-09-09T04:34:32.319Z,617.5
2022-09-09T04:35:34.790Z,618.1
2022-09-09T04:36:37.272Z,617.9
2022-09-09T04:37:39.487Z,617.7
2022-09-09T04:38:41.966Z,617.5
2022-09-09T04:39:44.821Z,617.3
2022-09-09T04:40:47.117Z,617.2
2022-09-09T04:41:49.309Z,617
2022-09-09T04:42:51.551Z,617
2022-09-09T04:43:54.018Z,616.8
2022-09-09T04:44:56.220Z,617
2022-09-09T04:45:59.161Z,616.8
2022-09-09T04:47:01.435Z,617.4
2022-09-09T04:48:03.906Z,617.2
2022-09-09T04:49:05.807Z,617.4
2022-09-09T04:50:08.304Z,617
2022-09-09T04:51:10.506Z,617.2
2022-09-09T04:52:12.973Z,617.4
2022-09-09T04:53:15.490Z,617.5
2022-09-09T04:54:17.417Z,617.4
2022-09-09T04:55:19.612Z,617.4
2022-09-09T04:56:21.540Z,617.5
2022-09-09T04:57:23.721Z,617.8
2022-09-09T04:58:26.242Z,617.3
2022-09-09T04:59:28.702Z,617.6
2022-09-09T05:00:31.486Z,617.2
2022-09-09T05:01:33.992Z,617.2
2022-09-09T05:02:36.783Z,617.3
2022-09-09T05:03:38.192Z,617.2
2022-09-09T05:04:40.102Z,617.4
2022-09-09T05:05:42.606Z,617.1
2022-09-09T05:06:44.809Z,617
2022-09-09T05:07:47.015Z,617.2
2022-09-09T05:08:49.517Z,616.9
2022-09-09T05:09:51.425Z,617.2
2022-09-09T05:10:53.912Z,616.7
2022-09-09T05:11:56.102Z,616.7
2022-09-09T05:12:58.570Z,616.7
2022-09-09T05:14:00.802Z,616.8
2022-09-09T05:15:02.728Z,616.6
2022-09-09T05:16:05.705Z,616.5
2022-09-09T05:17:07.926Z,616.6
2022-09-09T05:18:10.392Z,616.4
2022-09-09T05:19:12.865Z,616.4
2022-09-09T05:21:19.793Z,616.7
2022-09-09T05:22:22.260Z,616.7
2022-09-09T05:23:24.737Z,616.8
2022-09-09T05:24:26.942Z,616.6
2022-09-09T05:25:29.128Z,616
2022-09-09T05:26:30.560Z,616
2022-09-09T05:27:32.741Z,615.6
2022-09-09T05:28:35.491Z,615.6
2022-09-09T05:29:38.053Z,615.2
2022-09-09T05:30:40.541Z,615.2
2022-09-09T05:31:43.670Z,614.9
2022-09-09T05:32:46.171Z,614.6
2022-09-09T05:33:48.365Z,614.7
2022-09-09T05:34:50.572Z,614.9
2022-09-09T05:35:53.062Z,614.7
2022-09-09T05:36:55.279Z,615.1
2022-09-09T05:37:57.755Z,614.8
2022-09-09T05:38:59.956Z,615.2
2022-09-09T05:40:02.555Z,614.9
2022-09-09T05:41:04.768Z,615.3
2022-09-09T05:42:07.282Z,615.3
2022-09-09T05:43:09.199Z,615.6
2022-09-09T05:44:11.400Z,615.7
2022-09-09T05:45:13.658Z,615.8
2022-09-09T05:46:16.676Z,615.9
2022-09-09T05:47:18.902Z,615.8
2022-09-09T05:48:21.399Z,615.8
2022-09-09T05:49:23.595Z,616
2022-09-09T05:51:33.421Z,615.4
2022-09-09T05:52:35.662Z,615.3
2022-09-09T05:53:37.907Z,615.1
2022-09-09T05:54:40.384Z,615
2022-09-09T05:55:42.885Z,614.8
2022-09-09T05:57:51.559Z,614.7
2022-09-09T05:58:53.748Z,614.7
2022-09-09T05:59:56.308Z,614.8
2022-09-09T06:00:58.531Z,614.6
2022-09-09T06:02:01.314Z,614.6
2022-09-09T06:03:04.415Z,614.4
2022-09-09T06:04:07.000Z,614.3
2022-09-09T06:05:09.179Z,614.4
2022-09-09T06:06:11.655Z,614.2
2022-09-09T06:07:14.136Z,614.1
2022-09-09T06:08:16.328Z,613.9
2022-09-09T06:09:18.544Z,613.9
2022-09-09T06:10:21.020Z,613.6
2022-09-09T06:11:23.248Z,614.1
2022-09-09T06:12:24.629Z,614
2022-09-09T06:13:26.859Z,613.9
2022-09-09T06:14:29.333Z,614.3
2022-09-09T06:15:31.816Z,614
2022-09-09T06:16:35.069Z,614.3
2022-09-09T06:17:37.603Z,614.2
2022-09-09T06:18:39.934Z,614.7
2022-09-09T06:19:42.403Z,614.6
2022-09-09T06:20:44.882Z,614.1
2022-09-09T06:21:47.357Z,614.5
2022-09-09T06:22:49.829Z,614.2
2022-09-09T06:23:52.394Z,614.6
2022-09-09T06:24:54.051Z,614.4
2022-09-09T06:25:56.257Z,614.5
2022-09-09T06:26:58.761Z,614.6
2022-09-09T06:28:01.231Z,614.7
2022-09-09T06:29:03.734Z,614.7
2022-09-09T06:30:05.928Z,614.9
2022-09-09T06:31:08.162Z,615.2
2022-09-09T06:32:10.711Z,614.7
2022-09-09T06:33:13.180Z,614.8
2022-09-09T06:34:14.804Z,614.6
2022-09-09T06:35:17.296Z,614.5
2022-09-09T06:36:19.776Z,614.2
2022-09-09T06:37:22.197Z,614
2022-09-09T06:38:24.399Z,614.3
2022-09-09T06:39:26.894Z,614.3
2022-09-09T06:40:29.093Z,614.3
2022-09-09T06:41:31.579Z,614
2022-09-09T06:42:33.786Z,614.4
2022-09-09T06:43:36.280Z,614
2022-09-09T06:44:38.248Z,614
2022-09-09T06:45:40.452Z,614.1
2022-09-09T06:46:43.281Z,614.3
2022-09-09T06:47:45.834Z,614
2022-09-09T06:48:48.030Z,614
2022-09-09T06:49:50.308Z,613.8
2022-09-09T06:50:52.495Z,613.4
2022-09-09T06:51:56.158Z,613.2
2022-09-09T06:52:58.641Z,613.8
2022-09-09T06:54:00.831Z,613.2
2022-09-09T06:55:02.779Z,613
2022-09-09T06:56:05.264Z,612.5
2022-09-09T06:58:12.480Z,612.4
2022-09-09T06:59:14.671Z,612
2022-09-09T07:00:16.392Z,612
2022-09-09T07:01:18.840Z,611.7
2022-09-09T07:02:21.660Z,611.9
2022-09-09T07:03:23.931Z,611.3
2022-09-09T07:04:25.589Z,611.5
2022-09-09T07:05:27.522Z,610.8
2022-09-09T07:06:29.179Z,610
2022-09-09T07:07:31.378Z,609.2
2022-09-09T07:08:34.117Z,608.8
2022-09-09T07:09:36.601Z,608.5
2022-09-09T07:10:39.107Z,609
2022-09-09T07:11:41.321Z,609.3
2022-09-09T07:12:43.798Z,609.4
2022-09-09T07:13:46.038Z,609.1
2022-09-09T07:14:48.513Z,608.7
2022-09-09T07:15:51.316Z,608.6
2022-09-09T07:18:01.186Z,608.6
2022-09-09T07:19:03.720Z,608.6
2022-09-09T07:20:05.911Z,608.2
2022-09-09T07:21:08.093Z,608.3
2022-09-09T07:22:10.308Z,608.8
2022-09-09T07:23:12.501Z,608.6
2022-09-09T07:24:15.514Z,608.6
2022-09-09T07:25:18.024Z,609
2022-09-09T07:26:20.292Z,608.8
2022-09-09T07:27:22.256Z,608.9
2022-09-09T07:28:24.730Z,608.7
2022-09-09T07:29:26.949Z,608.6
2022-09-09T07:30:30.135Z,608.7
2022-09-09T07:31:33.142Z,609
2022-09-09T07:32:35.665Z,608.6
2022-09-09T07:33:38.462Z,608.5
2022-09-09T07:34:41.015Z,609
2022-09-09T07:35:43.215Z,608.8
2022-09-09T07:36:45.416Z,608.4
2022-09-09T07:38:52.604Z,608.5
2022-09-09T07:39:55.496Z,609
2022-09-09T07:40:57.997Z,608.6
2022-09-09T07:42:00.252Z,608.1
2022-09-09T07:43:02.190Z,608.2
2022-09-09T07:44:04.661Z,608
2022-09-09T07:45:06.900Z,608
2022-09-09T07:46:09.420Z,607.7
2022-09-09T07:47:11.957Z,607.6
2022-09-09T07:48:14.425Z,608
2022-09-09T07:49:16.360Z,608
2022-09-09T07:50:18.894Z,607.6
2022-09-09T07:51:21.360Z,607.5
2022-09-09T07:52:23.967Z,607.4
2022-09-09T07:53:26.171Z,607.5
2022-09-09T07:54:28.677Z,607.2
2022-09-09T07:55:31.155Z,607.7
2022-09-09T07:56:35.453Z,607.3
2022-09-09T07:57:52.600Z,607.3
2022-09-09T07:58:55.109Z,607.2
2022-09-09T07:59:57.585Z,607.4
2022-09-09T08:01:00.091Z,606.9
2022-09-09T08:02:02.638Z,607
2022-09-09T08:03:05.471Z,606.9
2022-09-09T08:04:07.658Z,606.9
2022-09-09T08:05:10.136Z,607.1
2022-09-09T08:06:12.378Z,606.9
2022-09-09T08:07:14.850Z,606
2022-09-09T08:08:16.770Z,605.9
2022-09-09T08:09:19.256Z,606
2022-09-09T08:10:21.285Z,605.9
2022-09-09T08:11:23.765Z,605.9
2022-09-09T08:12:26.239Z,606
2022-09-09T08:13:28.845Z,605.5
2022-09-09T08:14:31.077Z,605.7
2022-09-09T08:15:33.564Z,605.5
2022-09-09T08:16:35.794Z,605.3
2022-09-09T08:17:38.005Z,605.2
2022-09-09T08:18:40.489Z,605.5
2022-09-09T08:19:42.970Z,605.5
2022-09-09T08:20:44.900Z,605.5
2022-09-09T08:21:47.187Z,605.2
2022-09-09T08:22:49.405Z,605.2
2022-09-09T08:24:56.878Z,604.7
2022-09-09T08:25:59.075Z,604.9
2022-09-09T08:27:01.575Z,604.8
2022-09-09T08:28:03.975Z,604.8
2022-09-09T08:29:06.468Z,604.5
2022-09-09T08:30:08.971Z,604.2
2022-09-09T08:31:12.101Z,604.3
2022-09-09T08:32:14.697Z,604.2
2022-09-09T08:33:17.184Z,604
2022-09-09T08:34:19.448Z,604.3
2022-09-09T08:35:21.659Z,604.2
2022-09-09T08:36:24.171Z,604.3
2022-09-09T08:37:26.423Z,604.2
2022-09-09T08:38:28.948Z,604.5
2022-09-09T08:39:31.574Z,604.6
2022-09-09T08:40:34.101Z,604.3
2022-09-09T08:41:36.286Z,604.5
2022-09-09T08:42:38.217Z,604.5
2022-09-09T08:43:40.427Z,604
2022-09-09T08:45:47.697Z,604
2022-09-09T08:46:50.396Z,603.9
2022-09-09T08:47:52.900Z,603.6
2022-09-09T08:48:54.806Z,603.9
2022-09-09T08:49:57.370Z,603.5
2022-09-09T08:50:59.844Z,603.1
2022-09-09T08:52:02.354Z,603.7
2022-09-09T08:53:04.912Z,603.5
2022-09-09T08:54:07.406Z,603.7
2022-09-09T08:55:09.633Z,603.7
2022-09-09T08:56:12.196Z,603.5
2022-09-09T08:57:14.401Z,604
2022-09-09T08:58:16.898Z,603.9
2022-09-09T08:59:19.382Z,603.8
2022-09-09T09:00:21.563Z,603.8
2022-09-09T09:01:23.941Z,604.3
2022-09-09T09:02:26.646Z,604.1
2022-09-09T09:03:28.889Z,604.2
2022-09-09T09:04:31.822Z,604
2022-09-09T09:05:34.144Z,604
2022-09-09T09:06:36.362Z,604.2
2022-09-09T09:07:38.559Z,604.4
2022-09-09T09:08:41.102Z,604.3
2022-09-09T09:09:43.336Z,604.4
2022-09-09T09:10:45.622Z,604.4
2022-09-09T09:11:48.102Z,604.1
2022-09-09T09:12:50.309Z,604.1
2022-09-09T09:13:52.530Z,604.4
2022-09-09T09:14:55.025Z,604.3
2022-09-09T09:15:56.867Z,604.4
2022-09-09T09:16:58.840Z,604.4
2022-09-09T09:18:01.050Z,604.2
2022-09-09T09:19:03.284Z,604.7
2022-09-09T09:20:05.219Z,604.9
2022-09-09T09:21:07.446Z,604.8
2022-09-09T09:22:09.933Z,604.7
2022-09-09T09:23:12.424Z,604.7
2022-09-09T09:25:20.921Z,604.2
2022-09-09T09:26:23.409Z,604.6
2022-09-09T09:27:25.661Z,604.3
2022-09-09T09:28:27.877Z,604.3
2022-09-09T09:29:29.807Z,604.2
2022-09-09T09:30:33.116Z,603.9
2022-09-09T09:31:35.109Z,603.7
2022-09-09T09:32:37.754Z,603.7
2022-09-09T09:33:39.748Z,603.6
2022-09-09T09:34:41.993Z,603.4
2022-09-09T09:35:46.512Z,603.7
2022-09-09T09:36:48.776Z,603.6
2022-09-09T09:41:06.540Z,603.2
2022-09-09T09:42:09.018Z,603.3
2022-09-09T09:43:11.245Z,603.7
2022-09-09T09:44:13.181Z,603.7
2022-09-09T09:45:15.662Z,604
2022-09-09T09:46:20.554Z,603.8
2022-09-09T09:47:23.549Z,604
2022-09-09T09:48:26.049Z,604
2022-09-09T09:49:27.955Z,604
2022-09-09T09:50:29.920Z,603.9
2022-09-09T09:51:32.125Z,603.8
2022-09-09T09:52:34.663Z,604.1
2022-09-09T09:53:36.518Z,603.8
2022-09-09T09:54:38.768Z,603.5
2022-09-09T09:55:41.271Z,603.6
2022-09-09T09:56:43.970Z,603.6
2022-09-09T09:57:46.278Z,603.5
2022-09-09T09:58:48.523Z,603.7
2022-09-09T09:59:50.728Z,604
2022-09-09T10:00:52.687Z,603.7
2022-09-09T10:01:55.026Z,603.8
2022-09-09T10:02:57.292Z,604.1
2022-09-09T10:03:59.844Z,603.9
2022-09-09T10:05:02.494Z,603.9
2022-09-09T10:06:05.026Z,603.6
2022-09-09T10:07:06.964Z,603.5
2022-09-09T10:08:08.903Z,603.4
2022-09-09T10:09:11.377Z,603.5
2022-09-09T10:10:14.098Z,603.6
2022-09-09T10:11:16.305Z,603.8
2022-09-09T10:12:18.382Z,603.8
2022-09-09T10:13:20.898Z,604
2022-09-09T10:14:23.380Z,604.4
2022-09-09T10:15:25.780Z,604.1
2022-09-09T10:16:27.818Z,603.9
2022-09-09T10:17:30.046Z,604.1
2022-09-09T10:18:32.662Z,603.8
2022-09-09T10:19:34.905Z,603.9
2022-09-09T10:20:37.380Z,603.5
2022-09-09T10:21:39.882Z,603.4
2022-09-09T10:22:42.119Z,603.7
2022-09-09T10:23:44.676Z,603.4
2022-09-09T10:24:47.220Z,603.4
2022-09-09T10:25:49.686Z,603.3
2022-09-09T10:26:52.168Z,603.3
2022-09-09T10:28:59.832Z,603.4
2022-09-09T10:30:02.016Z,603.4
2022-09-09T10:31:04.861Z,602.8
2022-09-09T10:32:07.090Z,603.1
2022-09-09T10:34:12.071Z,603.7
2022-09-09T10:35:14.581Z,603.7
2022-09-09T10:36:16.775Z,604.2
2022-09-09T10:37:19.020Z,603.9
2022-09-09T10:38:21.226Z,604.3
2022-09-09T10:39:23.722Z,604.3
2022-09-09T10:40:26.545Z,604.3
2022-09-09T10:41:28.604Z,604.1
2022-09-09T10:42:31.085Z,603.8
2022-09-09T10:43:33.522Z,603.8
2022-09-09T10:44:36.073Z,603.6
2022-09-09T10:45:37.988Z,603.9
2022-09-09T10:46:40.026Z,603.9
2022-09-09T10:47:42.534Z,603.7
2022-09-09T10:48:44.733Z,603.8
2022-09-09T10:49:46.913Z,603.8
2022-09-09T10:51:54.417Z,604
2022-09-09T10:52:56.640Z,604.3
2022-09-09T10:53:58.566Z,604.1
2022-09-09T10:55:01.078Z,604
2022-09-09T10:56:03.007Z,603.5
2022-09-09T10:57:05.487Z,603.5
2022-09-09T10:58:07.688Z,603.8
2022-09-09T10:59:10.166Z,603.8
2022-09-09T11:00:12.695Z,604
2022-09-09T11:01:14.902Z,604.2
2022-09-09T11:02:16.836Z,604.1
2022-09-09T11:03:19.308Z,604.3
2022-09-09T11:04:21.748Z,604.8
2022-09-09T11:05:24.258Z,604.4
2022-09-09T11:06:27.040Z,604.4
2022-09-09T11:07:29.558Z,604.6
2022-09-09T11:08:32.092Z,604.7
2022-09-09T11:09:34.293Z,604.6
2022-09-09T11:10:36.521Z,604.5
2022-09-09T11:11:39.018Z,604.3
2022-09-09T11:12:40.940Z,604.1
2022-09-09T11:13:43.422Z,603.7
2022-09-09T11:14:45.896Z,604.5
2022-09-09T11:15:48.420Z,604.4
2022-09-09T11:16:51.325Z,604.5
2022-09-09T11:17:53.250Z,604.7
2022-09-09T11:18:55.729Z,604.5
2022-09-09T11:19:57.944Z,604.7
2022-09-09T11:21:00.432Z,604.4
2022-09-09T11:22:02.350Z,604.2
2022-09-09T11:23:04.889Z,603.9
2022-09-09T11:24:07.395Z,604.3
2022-09-09T11:25:10.044Z,604.6
2022-09-09T11:26:12.415Z,604.4
2022-09-09T11:27:14.965Z,604.7
2022-09-09T11:28:17.460Z,604.7
2022-09-09T11:29:20.376Z,604.2
2022-09-09T11:31:27.865Z,604.6
2022-09-09T11:32:30.362Z,604.3
2022-09-09T11:33:33.730Z,604.5
2022-09-09T11:35:40.075Z,604.3
2022-09-09T11:36:42.600Z,604.4
2022-09-09T11:37:45.103Z,604.1
2022-09-09T11:38:47.589Z,604.4
2022-09-09T11:39:50.097Z,604.5
2022-09-09T11:40:52.590Z,604.3
2022-09-09T11:41:54.542Z,604.5
2022-09-09T11:42:56.458Z,604.9
2022-09-09T11:43:58.697Z,604.8
2022-09-09T11:45:00.961Z,604.2
2022-09-09T11:46:03.782Z,604.9
2022-09-09T11:47:06.440Z,604.8
2022-09-09T11:48:09.071Z,604.5
2022-09-09T11:49:10.983Z,604.3
2022-09-09T11:50:13.470Z,604.5
2022-09-09T11:52:20.933Z,604.1
2022-09-09T11:53:23.436Z,604.5
2022-09-09T11:54:25.910Z,604.8
2022-09-09T11:55:28.435Z,604.7
2022-09-09T11:56:30.644Z,604.8
2022-09-09T11:57:32.854Z,604.6
2022-09-09T11:58:51.210Z,604.6
2022-09-09T11:59:53.585Z,604.2
2022-09-09T12:00:55.516Z,604.6
2022-09-09T12:01:58.706Z,604.8
2022-09-09T12:03:01.336Z,605
2022-09-09T12:04:04.015Z,604.9
2022-09-09T12:05:06.734Z,604.7
2022-09-09T12:06:09.079Z,604.9
2022-09-09T12:07:11.622Z,604.5
2022-09-09T12:08:13.830Z,604.8
2022-09-09T12:09:16.343Z,604.5
2022-09-09T12:10:18.276Z,605
2022-09-09T12:11:20.774Z,605.2
2022-09-09T12:12:22.459Z,604.9
2022-09-09T12:13:24.947Z,605.4
2022-09-09T12:14:27.431Z,605.3
2022-09-09T12:15:29.647Z,605.6
2022-09-09T12:16:32.512Z,605.3
2022-09-09T12:17:34.768Z,605.6
2022-09-09T12:18:37.271Z,605.6
2022-09-09T12:19:39.510Z,605.6
2022-09-09T12:20:41.419Z,605
2022-09-09T12:21:43.651Z,604.5
2022-09-09T12:22:46.144Z,605.1
2022-09-09T12:23:48.082Z,604.7
2022-09-09T12:24:50.333Z,605.5
2022-09-09T12:25:52.261Z,605.1
2022-09-09T12:26:54.505Z,605.9
2022-09-09T12:27:56.719Z,605.9
2022-09-09T12:28:59.248Z,606.1
2022-09-09T12:30:01.756Z,605.9
2022-09-09T12:31:04.758Z,606.6
2022-09-09T12:32:07.415Z,606.2
2022-09-09T12:33:09.621Z,606.3
2022-09-09T12:34:12.265Z,606.1
2022-09-09T12:35:14.737Z,606.4
2022-09-09T12:36:16.947Z,606.1
2022-09-09T12:37:20.322Z,606.2
2022-09-09T12:38:23.463Z,606.3
2022-09-09T12:39:26.824Z,605.5
2022-09-09T12:40:28.758Z,606.2
2022-09-09T12:41:30.975Z,606.4
2022-09-09T12:42:35.129Z,605.8
2022-09-09T12:43:40.626Z,606
2022-09-09T12:44:42.845Z,606.3
2022-09-09T12:45:45.304Z,606.3
2022-09-09T12:46:48.786Z,606.5
2022-09-09T12:47:51.276Z,606.6
2022-09-09T12:48:53.201Z,606.7
2022-09-09T12:49:55.752Z,606.8
2022-09-09T12:50:57.713Z,606.5
2022-09-09T12:52:00.198Z,606.1
2022-09-09T12:53:02.685Z,606.3
2022-09-09T12:54:04.611Z,606.7
2022-09-09T12:55:06.819Z,606.5
2022-09-09T12:56:09.346Z,606.7
2022-09-09T12:57:11.584Z,607.2
2022-09-09T12:58:13.795Z,606.4
2022-09-09T12:59:15.721Z,607.1
2022-09-09T13:00:18.846Z,607
2022-09-09T13:01:22.761Z,607.1
2022-09-09T13:02:25.516Z,607
2022-09-09T13:03:28.044Z,607.3
2022-09-09T13:04:29.697Z,607.4
2022-09-09T13:05:32.241Z,607.3
2022-09-09T13:06:34.457Z,607.1
2022-09-09T13:07:36.658Z,607.2
2022-09-09T13:08:38.835Z,607.6
2022-09-09T13:09:41.369Z,606.7
2022-09-09T13:11:48.873Z,607.5
2022-09-09T13:12:51.348Z,607.8
2022-09-09T13:13:53.565Z,607.8
2022-09-09T13:14:55.484Z,608.4
2022-09-09T13:15:57.997Z,609
2022-09-09T13:17:00.884Z,608.9
2022-09-09T13:18:03.404Z,608.9
2022-09-09T13:19:05.337Z,609.4
2022-09-09T13:20:07.263Z,609.6
2022-09-09T13:21:09.787Z,609.5
2022-09-09T13:22:12.298Z,609.3
2022-09-09T13:23:14.244Z,609.8
2022-09-09T13:24:16.710Z,609.5
2022-09-09T13:25:18.902Z,609.4
2022-09-09T13:26:21.087Z,609.3
2022-09-09T13:27:23.011Z,609.7
2022-09-09T13:28:25.479Z,609.6
2022-09-09T13:29:27.412Z,610
2022-09-09T13:30:29.840Z,609.8
2022-09-09T13:31:32.364Z,610.6
2022-09-09T13:32:34.844Z,610.5
2022-09-09T13:33:37.895Z,610.2
2022-09-09T13:34:40.496Z,610.1
2022-09-09T13:35:42.977Z,610.3
2022-09-09T13:36:45.517Z,610.3
2022-09-09T13:37:48.094Z,610.6
2022-09-09T13:38:50.589Z,610.4
2022-09-09T13:39:52.963Z,610.6
2022-09-09T13:40:55.158Z,610.7
2022-09-09T13:41:57.354Z,610.7
2022-09-09T13:42:59.865Z,611.1
2022-09-09T13:44:02.045Z,611.2
2022-09-09T13:45:04.539Z,610.8
2022-09-09T13:46:07.025Z,610.8
2022-09-09T13:48:14.542Z,610.5
2022-09-09T13:49:17.014Z,610.2
2022-09-09T13:50:19.488Z,610.8
2022-09-09T13:51:21.965Z,611.3
2022-09-09T13:52:24.506Z,611.2
2022-09-09T13:53:26.718Z,611.2